createdAt,value
2016-04-15T00:00:07.473Z,1001.03
2016-04-15T00:01:07.538Z,1001.01
2016-04-15T00:02:07.587Z,1001.03
2016-04-15T00:03:07.637Z,1001
2016-04-15T00:04:07.687Z,1001
2016-04-15T00:05:07.736Z,1001.03
2016-04-15T00:06:07.785Z,1001.03
2016-04-15T00:07:07.851Z,1000.99
2016-04-15T00:08:07.900Z,1000.97
2016-04-15T00:09:07.950Z,1000.94
2016-04-15T00:10:08.000Z,1000.92
2016-04-15T00:11:08.049Z,1000.87
2016-04-15T00:12:08.099Z,1000.85
2016-04-15T00:13:08.164Z,1000.85
2016-04-15T00:14:08.214Z,1000.84
2016-04-15T00:15:08.263Z,1000.85
2016-04-15T00:16:08.312Z,1000.83
2016-04-15T00:17:08.362Z,1000.79
2016-04-15T00:18:08.411Z,1000.82
2016-04-15T00:19:08.461Z,1000.82
2016-04-15T00:20:08.526Z,1000.8
2016-04-15T00:21:08.575Z,1000.79
2016-04-15T00:22:08.625Z,1000.78
2016-04-15T00:23:08.674Z,1000.76
2016-04-15T00:24:08.724Z,1000.72
2016-04-15T00:25:08.774Z,1000.72
2016-04-15T00:26:08.839Z,1000.69
2016-04-15T00:27:08.889Z,1000.69
2016-04-15T00:28:08.938Z,1000.66
2016-04-15T00:29:08.988Z,1000.67
2016-04-15T00:30:09.053Z,1000.65
2016-04-15T00:31:09.087Z,1000.61
2016-04-15T00:32:09.137Z,1000.63
2016-04-15T00:33:09.203Z,1000.61
2016-04-15T00:34:09.252Z,1000.57
2016-04-15T00:35:09.303Z,1000.55
2016-04-15T00:36:09.359Z,1000.54
2016-04-15T00:37:09.408Z,1000.49
2016-04-15T00:38:09.457Z,1000.49
2016-04-15T00:39:09.507Z,1000.47
2016-04-15T00:40:09.557Z,1000.46
2016-04-15T00:41:09.606Z,1000.45
2016-04-15T00:42:09.671Z,1000.41
2016-04-15T00:43:09.720Z,1000.4
2016-04-15T00:44:09.770Z,1000.41
2016-04-15T00:45:09.820Z,1000.39
2016-04-15T00:46:09.870Z,1000.34
2016-04-15T00:47:09.920Z,1000.28
2016-04-15T00:48:09.970Z,1000.25
2016-04-15T00:49:10.034Z,1000.21
2016-04-15T00:50:10.084Z,1000.22
2016-04-15T00:51:10.134Z,1000.23
2016-04-15T00:52:10.183Z,1000.19
2016-04-15T00:53:10.233Z,1000.13
2016-04-15T00:54:10.297Z,1000.15
2016-04-15T00:55:10.347Z,1000.13
2016-04-15T00:56:10.396Z,1000.12
2016-04-15T00:57:10.446Z,1000.08
2016-04-15T00:58:10.496Z,1000.09
2016-04-15T00:59:10.545Z,1000.1
2016-04-15T01:00:10.610Z,1000.05
2016-04-15T01:01:10.660Z,1000
2016-04-15T01:02:10.710Z,999.95
2016-04-15T01:03:10.760Z,999.98
2016-04-15T01:04:10.824Z,999.95
2016-04-15T01:05:10.858Z,999.98
2016-04-15T01:06:10.907Z,999.98
2016-04-15T01:07:10.973Z,999.99
2016-04-15T01:08:11.023Z,999.95
2016-04-15T01:09:11.073Z,999.95
2016-04-15T01:10:11.121Z,999.94
2016-04-15T01:11:11.171Z,999.91
2016-04-15T01:12:11.236Z,999.89
2016-04-15T01:13:11.286Z,999.91
2016-04-15T01:14:11.336Z,999.89
2016-04-15T01:15:11.384Z,999.85
2016-04-15T01:16:11.435Z,999.88
2016-04-15T01:17:11.484Z,999.86
2016-04-15T01:18:11.550Z,999.87
2016-04-15T01:19:11.600Z,999.83
2016-04-15T01:20:11.648Z,999.83
2016-04-15T01:21:11.698Z,999.77
2016-04-15T01:22:11.747Z,999.78
2016-04-15T01:23:11.813Z,999.76
2016-04-15T01:24:11.863Z,999.76
2016-04-15T01:25:11.911Z,999.79
2016-04-15T01:26:11.962Z,999.79
2016-04-15T01:27:12.011Z,999.78
2016-04-15T01:28:12.077Z,999.74
2016-04-15T01:29:12.111Z,999.69
2016-04-15T01:30:12.175Z,999.67
2016-04-15T01:31:12.210Z,999.63
2016-04-15T01:32:12.274Z,999.67
2016-04-15T01:33:12.324Z,999.65
2016-04-15T01:34:12.374Z,999.63
2016-04-15T01:35:12.424Z,999.6
2016-04-15T01:36:12.473Z,999.58
2016-04-15T01:37:12.538Z,999.58
2016-04-15T01:38:12.587Z,999.55
2016-04-15T01:39:12.637Z,999.51
2016-04-15T01:40:12.687Z,999.48
2016-04-15T01:41:12.736Z,999.52
2016-04-15T01:42:12.787Z,999.47
2016-04-15T01:43:12.835Z,999.46
2016-04-15T01:44:12.901Z,999.41
2016-04-15T01:45:12.951Z,999.36
2016-04-15T01:46:13.000Z,999.38
2016-04-15T01:47:13.050Z,999.37
2016-04-15T01:48:13.098Z,999.34
2016-04-15T01:49:13.164Z,999.34
2016-04-15T01:50:13.214Z,999.31
2016-04-15T01:51:13.263Z,999.32
2016-04-15T01:52:13.313Z,999.22
2016-04-15T01:53:13.361Z,999.22
2016-04-15T01:54:13.411Z,999.24
2016-04-15T01:55:13.477Z,999.24
2016-04-15T01:56:13.526Z,999.2
2016-04-15T01:57:13.577Z,999.2
2016-04-15T01:58:13.625Z,999.17
2016-04-15T01:59:13.675Z,999.17
2016-04-15T02:00:13.725Z,999.13
2016-04-15T02:01:13.775Z,999.14
2016-04-15T02:02:13.840Z,999.13
2016-04-15T02:03:13.889Z,999.11
2016-04-15T02:04:13.938Z,999.1
2016-04-15T02:05:13.988Z,999.1
2016-04-15T02:06:14.038Z,999.05
2016-04-15T02:07:14.088Z,999.05
2016-04-15T02:08:14.153Z,999.04
2016-04-15T02:09:14.202Z,999.01
2016-04-15T02:10:14.252Z,999.01
2016-04-15T02:11:14.302Z,998.98
2016-04-15T02:12:14.351Z,998.97
2016-04-15T02:13:14.401Z,998.98
2016-04-15T02:14:14.465Z,998.92
2016-04-15T02:15:14.515Z,998.91
2016-04-15T02:16:14.565Z,998.91
2016-04-15T02:17:14.614Z,998.91
2016-04-15T02:18:14.664Z,998.9
2016-04-15T02:19:14.713Z,998.89
2016-04-15T02:20:14.778Z,998.87
2016-04-15T02:21:14.828Z,998.84
2016-04-15T02:22:14.877Z,998.85
2016-04-15T02:23:14.928Z,998.89
2016-04-15T02:24:14.977Z,998.96
2016-04-15T02:25:15.042Z,999
2016-04-15T02:26:15.076Z,999.01
2016-04-15T02:27:15.141Z,999
2016-04-15T02:28:15.191Z,998.97
2016-04-15T02:29:15.241Z,998.99
2016-04-15T02:30:15.290Z,998.96
2016-04-15T02:31:15.355Z,998.96
2016-04-15T02:32:15.405Z,998.98
2016-04-15T02:33:15.454Z,998.96
2016-04-15T02:34:15.504Z,999.04
2016-04-15T02:35:15.553Z,998.98
2016-04-15T02:36:15.602Z,998.99
2016-04-15T02:37:15.652Z,998.99
2016-04-15T02:38:15.702Z,998.96
2016-04-15T02:39:15.768Z,998.95
2016-04-15T02:40:15.817Z,999.04
2016-04-15T02:41:15.866Z,999.01
2016-04-15T02:42:15.916Z,998.99
2016-04-15T02:43:15.965Z,998.95
2016-04-15T02:44:16.031Z,998.95
2016-04-15T02:45:16.080Z,998.96
2016-04-15T02:46:16.129Z,998.95
2016-04-15T02:47:16.179Z,998.95
2016-04-15T02:48:16.229Z,998.95
2016-04-15T02:49:16.295Z,998.93
2016-04-15T02:50:16.345Z,998.9
2016-04-15T02:51:16.393Z,998.93
2016-04-15T02:52:16.443Z,998.93
2016-04-15T02:53:16.493Z,998.97
2016-04-15T02:54:16.542Z,998.96
2016-04-15T02:55:16.592Z,998.93
2016-04-15T02:56:16.641Z,998.89
2016-04-15T02:57:16.706Z,998.91
2016-04-15T02:58:16.756Z,998.86
2016-04-15T02:59:16.821Z,998.86
2016-04-15T03:00:16.855Z,998.88
2016-04-15T03:01:16.905Z,998.89
2016-04-15T03:02:16.970Z,998.88
2016-04-15T03:03:17.019Z,998.86
2016-04-15T03:04:17.069Z,998.84
2016-04-15T03:05:17.119Z,998.86
2016-04-15T03:06:17.183Z,998.9
2016-04-15T03:07:17.218Z,998.87
2016-04-15T03:08:17.283Z,998.84
2016-04-15T03:09:17.363Z,998.85
2016-04-15T03:10:17.382Z,998.79
2016-04-15T03:11:17.431Z,998.74
2016-04-15T03:12:17.481Z,998.71
2016-04-15T03:13:17.531Z,998.74
2016-04-15T03:14:17.595Z,998.76
2016-04-15T03:15:17.645Z,998.73
2016-04-15T03:16:17.695Z,998.71
2016-04-15T03:17:17.744Z,998.68
2016-04-15T03:18:17.794Z,998.7
2016-04-15T03:19:17.843Z,998.73
2016-04-15T03:20:17.909Z,998.71
2016-04-15T03:21:17.959Z,998.67
2016-04-15T03:22:18.008Z,998.62
2016-04-15T03:23:18.058Z,998.64
2016-04-15T03:24:18.107Z,998.62
2016-04-15T03:25:18.156Z,998.57
2016-04-15T03:26:18.206Z,998.57
2016-04-15T03:27:18.271Z,998.58
2016-04-15T03:28:18.321Z,998.52
2016-04-15T03:29:18.370Z,998.54
2016-04-15T03:30:18.436Z,998.51
2016-04-15T03:31:18.470Z,998.52
2016-04-15T03:32:18.535Z,998.47
2016-04-15T03:33:18.585Z,998.41
2016-04-15T03:34:18.634Z,998.41
2016-04-15T03:35:18.683Z,998.43
2016-04-15T03:36:18.733Z,998.41
2016-04-15T03:37:18.782Z,998.36
2016-04-15T03:38:18.832Z,998.34
2016-04-15T03:39:18.897Z,998.37
2016-04-15T03:40:18.947Z,998.34
2016-04-15T03:41:18.996Z,998.33
2016-04-15T03:42:19.046Z,998.27
2016-04-15T03:43:19.096Z,998.3
2016-04-15T03:44:19.160Z,998.24
2016-04-15T03:45:19.210Z,998.21
2016-04-15T03:46:19.260Z,998.2
2016-04-15T03:47:19.310Z,998.18
2016-04-15T03:48:19.359Z,998.15
2016-04-15T03:49:19.409Z,998.13
2016-04-15T03:50:19.473Z,998.07
2016-04-15T03:51:19.523Z,998.08
2016-04-15T03:52:19.573Z,998.01
2016-04-15T03:53:19.622Z,997.98
2016-04-15T03:54:19.672Z,997.96
2016-04-15T03:55:19.722Z,998
2016-04-15T03:56:19.771Z,997.95
2016-04-15T03:57:19.836Z,997.96
2016-04-15T03:58:19.885Z,997.93
2016-04-15T03:59:19.935Z,997.93
2016-04-15T04:00:19.985Z,997.92
2016-04-15T04:01:20.035Z,997.87
2016-04-15T04:02:20.084Z,997.86
2016-04-15T04:03:20.149Z,997.9
2016-04-15T04:04:20.199Z,997.9
2016-04-15T04:05:20.249Z,997.86
2016-04-15T04:06:20.298Z,997.86
2016-04-15T04:07:20.363Z,997.81
2016-04-15T04:08:20.397Z,997.85
2016-04-15T04:09:20.446Z,997.81
2016-04-15T04:10:20.512Z,997.75
2016-04-15T04:11:20.562Z,997.79
2016-04-15T04:12:20.611Z,997.79
2016-04-15T04:13:20.660Z,997.72
2016-04-15T04:14:20.726Z,997.7
2016-04-15T04:15:20.776Z,997.68
2016-04-15T04:16:20.825Z,997.66
2016-04-15T04:17:20.874Z,997.63
2016-04-15T04:18:20.924Z,997.6
2016-04-15T04:19:20.973Z,997.58
2016-04-15T04:20:21.023Z,997.55
2016-04-15T04:21:21.089Z,997.54
2016-04-15T04:22:21.137Z,997.55
2016-04-15T04:23:21.187Z,997.51
2016-04-15T04:24:21.236Z,997.5
2016-04-15T04:25:21.286Z,997.48
2016-04-15T04:26:21.352Z,997.46
2016-04-15T04:27:21.401Z,997.46
2016-04-15T04:28:21.451Z,997.42
2016-04-15T04:29:21.501Z,997.39
2016-04-15T04:30:21.566Z,997.35
2016-04-15T04:31:21.600Z,997.31
2016-04-15T04:32:21.650Z,997.31
2016-04-15T04:33:21.714Z,997.29
2016-04-15T04:34:21.764Z,997.27
2016-04-15T04:35:21.813Z,997.26
2016-04-15T04:36:21.863Z,997.24
2016-04-15T04:37:21.913Z,997.26
2016-04-15T04:38:21.962Z,997.26
2016-04-15T04:39:22.027Z,997.25
2016-04-15T04:40:22.076Z,997.25
2016-04-15T04:41:22.126Z,997.23
2016-04-15T04:42:22.176Z,997.23
2016-04-15T04:43:22.226Z,997.23
2016-04-15T04:44:22.276Z,997.14
2016-04-15T04:45:22.340Z,997.12
2016-04-15T04:46:22.390Z,997.11
2016-04-15T04:47:22.440Z,997.13
2016-04-15T04:48:22.489Z,997.04
2016-04-15T04:49:22.539Z,997.03
2016-04-15T04:50:22.587Z,996.97
2016-04-15T04:51:22.653Z,996.95
2016-04-15T04:52:22.704Z,996.98
2016-04-15T04:53:22.798Z,996.96
2016-04-15T04:54:22.800Z,996.92
2016-04-15T04:55:22.870Z,996.95
2016-04-15T04:56:22.904Z,996.9
2016-04-15T04:57:22.953Z,996.95
2016-04-15T04:58:23.003Z,996.92
2016-04-15T04:59:23.069Z,996.95
2016-04-15T05:00:23.118Z,996.96
2016-04-15T05:01:23.167Z,996.93
2016-04-15T05:02:23.217Z,996.95
2016-04-15T05:03:23.267Z,997.02
2016-04-15T05:04:23.316Z,996.95
2016-04-15T05:05:23.381Z,996.96
2016-04-15T05:06:23.430Z,996.96
2016-04-15T05:07:23.480Z,996.99
2016-04-15T05:08:23.530Z,996.99
2016-04-15T05:09:23.579Z,996.92
2016-04-15T05:10:23.630Z,996.92
2016-04-15T05:11:23.679Z,996.92
2016-04-15T05:12:23.744Z,996.92
2016-04-15T05:13:23.794Z,996.93
2016-04-15T05:14:23.843Z,996.88
2016-04-15T05:15:23.893Z,996.87
2016-04-15T05:16:23.943Z,996.88
2016-04-15T05:17:24.007Z,996.85
2016-04-15T05:18:24.057Z,996.88
2016-04-15T05:19:24.106Z,996.86
2016-04-15T05:20:24.156Z,996.82
2016-04-15T05:21:24.206Z,996.79
2016-04-15T05:22:24.255Z,996.8
2016-04-15T05:23:24.304Z,996.79
2016-04-15T05:24:24.370Z,996.8
2016-04-15T05:25:24.419Z,996.75
2016-04-15T05:26:24.469Z,996.74
2016-04-15T05:27:24.519Z,996.7
2016-04-15T05:28:24.568Z,996.68
2016-04-15T05:29:24.618Z,996.67
2016-04-15T05:30:24.683Z,996.63
2016-04-15T05:31:24.733Z,996.55
2016-04-15T05:32:24.782Z,996.56
2016-04-15T05:33:24.831Z,996.57
2016-04-15T05:34:24.881Z,996.55
2016-04-15T05:35:24.930Z,996.56
2016-04-15T05:36:24.981Z,996.55
2016-04-15T05:37:25.046Z,996.57
2016-04-15T05:38:25.095Z,996.56
2016-04-15T05:39:25.145Z,996.57
2016-04-15T05:40:25.194Z,996.59
2016-04-15T05:41:25.244Z,996.57
2016-04-15T05:42:25.309Z,996.58
2016-04-15T05:43:25.358Z,996.57
2016-04-15T05:44:25.408Z,996.55
2016-04-15T05:45:25.457Z,996.5
2016-04-15T05:46:25.507Z,996.54
2016-04-15T05:47:25.557Z,996.53
2016-04-15T05:48:25.621Z,996.53
2016-04-15T05:49:25.671Z,996.53
2016-04-15T05:50:25.721Z,996.51
2016-04-15T05:51:25.770Z,996.49
2016-04-15T05:52:25.821Z,996.51
2016-04-15T05:53:25.870Z,996.49
2016-04-15T05:54:25.920Z,996.5
2016-04-15T05:55:25.985Z,996.45
2016-04-15T05:56:26.034Z,996.5
2016-04-15T05:57:26.084Z,996.45
2016-04-15T05:58:26.133Z,996.45
2016-04-15T05:59:26.183Z,996.49
2016-04-15T06:00:26.233Z,996.45
2016-04-15T06:01:26.297Z,996.49
2016-04-15T06:02:26.347Z,996.43
2016-04-15T06:03:26.396Z,996.41
2016-04-15T06:04:26.446Z,996.39
2016-04-15T06:05:26.496Z,996.32
2016-04-15T06:06:26.544Z,996.31
2016-04-15T06:07:26.610Z,996.31
2016-04-15T06:08:26.660Z,996.27
2016-04-15T06:09:26.710Z,996.28
2016-04-15T06:10:26.760Z,996.23
2016-04-15T06:11:26.809Z,996.26
2016-04-15T06:12:26.858Z,996.27
2016-04-15T06:13:26.908Z,996.27
2016-04-15T06:14:26.973Z,996.25
2016-04-15T06:15:27.023Z,996.22
2016-04-15T06:16:27.072Z,996.25
2016-04-15T06:17:27.121Z,996.26
2016-04-15T06:18:27.171Z,996.26
2016-04-15T06:19:27.237Z,996.24
2016-04-15T06:20:27.287Z,996.21
2016-04-15T06:21:27.341Z,996.25
2016-04-15T06:22:27.392Z,996.21
2016-04-15T06:23:27.442Z,996.15
2016-04-15T06:24:27.492Z,996.17
2016-04-15T06:25:27.541Z,996.16
2016-04-15T06:26:27.591Z,996.16
2016-04-15T06:27:27.644Z,996.18
2016-04-15T06:28:27.694Z,996.15
2016-04-15T06:29:27.743Z,996.11
2016-04-15T06:30:27.793Z,996.12
2016-04-15T06:31:27.858Z,996.1
2016-04-15T06:32:27.908Z,996.1
2016-04-15T06:33:27.958Z,996.16
2016-04-15T06:34:28.008Z,996.15
2016-04-15T06:35:28.057Z,996.09
2016-04-15T06:36:28.107Z,996.08
2016-04-15T06:37:28.172Z,996.01
2016-04-15T06:38:28.221Z,996.04
2016-04-15T06:39:28.271Z,996.04
2016-04-15T06:40:28.320Z,996.04
2016-04-15T06:41:28.370Z,996.1
2016-04-15T06:42:28.420Z,996.07
2016-04-15T06:43:28.469Z,996.07
2016-04-15T06:44:28.534Z,996.05
2016-04-15T06:45:28.583Z,996.08
2016-04-15T06:46:28.633Z,996.07
2016-04-15T06:47:28.683Z,996.08
2016-04-15T06:48:28.732Z,996.09
2016-04-15T06:49:28.782Z,996.1
2016-04-15T06:50:28.831Z,996.08
2016-04-15T06:51:28.881Z,996.05
2016-04-15T06:52:28.947Z,996.04
2016-04-15T06:53:28.996Z,996.03
2016-04-15T06:54:29.045Z,996.04
2016-04-15T06:55:29.094Z,996.02
2016-04-15T06:56:29.160Z,996
2016-04-15T06:57:29.194Z,995.98
2016-04-15T06:58:29.260Z,995.98
2016-04-15T06:59:29.309Z,996.02
2016-04-15T07:00:29.359Z,996.07
2016-04-15T07:01:29.408Z,996.06
2016-04-15T07:02:29.458Z,996.02
2016-04-15T07:03:29.507Z,996.01
2016-04-15T07:04:29.557Z,996.03
2016-04-15T07:05:29.607Z,995.99
2016-04-15T07:06:29.671Z,995.92
2016-04-15T07:07:29.721Z,995.92
2016-04-15T07:08:29.771Z,995.95
2016-04-15T07:09:29.820Z,996
2016-04-15T07:10:29.870Z,996.03
2016-04-15T07:11:29.919Z,995.97
2016-04-15T07:12:29.968Z,995.93
2016-04-15T07:13:30.034Z,995.9
2016-04-15T07:14:30.084Z,995.97
2016-04-15T07:15:30.134Z,995.99
2016-04-15T07:16:30.198Z,995.98
2016-04-15T07:17:30.232Z,995.94
2016-04-15T07:18:30.282Z,995.93
2016-04-15T07:19:30.332Z,995.9
2016-04-15T07:20:30.381Z,995.86
2016-04-15T07:21:30.435Z,995.86
2016-04-15T07:22:30.485Z,995.88
2016-04-15T07:23:30.535Z,995.84
2016-04-15T07:24:30.599Z,995.88
2016-04-15T07:25:30.649Z,995.84
2016-04-15T07:26:30.698Z,995.86
2016-04-15T07:27:30.748Z,995.82
2016-04-15T07:28:30.804Z,995.79
2016-04-15T07:29:30.852Z,995.79
2016-04-15T07:30:30.902Z,995.82
2016-04-15T07:31:30.968Z,995.82
2016-04-15T07:32:31.001Z,995.84
2016-04-15T07:33:31.067Z,995.83
2016-04-15T07:34:31.115Z,995.79
2016-04-15T07:35:31.165Z,995.81
2016-04-15T07:36:31.215Z,995.76
2016-04-15T07:37:31.264Z,995.8
2016-04-15T07:38:31.314Z,995.79
2016-04-15T07:39:31.364Z,995.79
2016-04-15T07:40:31.413Z,995.81
2016-04-15T07:41:31.479Z,995.79
2016-04-15T07:42:31.528Z,995.74
2016-04-15T07:43:31.578Z,995.78
2016-04-15T07:44:31.628Z,995.74
2016-04-15T07:45:31.677Z,995.76
2016-04-15T07:46:31.742Z,995.76
2016-04-15T07:47:31.775Z,995.76
2016-04-15T07:48:31.841Z,995.72
2016-04-15T07:49:31.891Z,995.73
2016-04-15T07:50:31.940Z,995.73
2016-04-15T07:51:31.990Z,995.72
2016-04-15T07:52:32.038Z,995.75
2016-04-15T07:53:32.088Z,995.7
2016-04-15T07:54:32.154Z,995.67
2016-04-15T07:55:32.203Z,995.7
2016-04-15T07:56:32.254Z,995.69
2016-04-15T07:57:32.302Z,995.67
2016-04-15T07:58:32.352Z,995.7
2016-04-15T07:59:32.401Z,995.69
2016-04-15T08:00:32.451Z,995.69
2016-04-15T08:01:32.501Z,995.69
2016-04-15T08:02:32.550Z,995.7
2016-04-15T08:03:32.600Z,995.67
2016-04-15T08:04:32.665Z,995.68
2016-04-15T08:05:32.715Z,995.68
2016-04-15T08:06:32.765Z,995.67
2016-04-15T08:07:32.815Z,995.67
2016-04-15T08:08:32.864Z,995.71
2016-04-15T08:09:32.914Z,995.75
2016-04-15T08:10:32.962Z,995.74
2016-04-15T08:11:33.012Z,995.75
2016-04-15T08:12:33.078Z,995.71
2016-04-15T08:13:33.127Z,995.74
2016-04-15T08:14:33.177Z,995.75
2016-04-15T08:15:33.225Z,995.74
2016-04-15T08:16:33.276Z,995.77
2016-04-15T08:17:33.325Z,995.72
2016-04-15T08:18:33.375Z,995.7
2016-04-15T08:19:33.425Z,995.73
2016-04-15T08:20:33.489Z,995.73
2016-04-15T08:21:33.529Z,995.71
2016-04-15T08:22:33.579Z,995.7
2016-04-15T08:23:33.628Z,995.7
2016-04-15T08:24:33.694Z,995.71
2016-04-15T08:25:33.743Z,995.74
2016-04-15T08:26:33.792Z,995.7
2016-04-15T08:27:33.842Z,995.7
2016-04-15T08:28:33.891Z,995.69
2016-04-15T08:29:33.942Z,995.74
2016-04-15T08:30:33.991Z,995.73
2016-04-15T08:31:34.061Z,995.75
2016-04-15T08:32:34.153Z,995.71
2016-04-15T08:33:34.245Z,995.71
2016-04-15T08:34:34.337Z,995.68
2016-04-15T08:35:34.430Z,995.7
2016-04-15T08:36:34.519Z,995.65
2016-04-15T08:37:34.584Z,995.64
2016-04-15T08:38:34.664Z,995.68
2016-04-15T08:39:34.713Z,995.6
2016-04-15T08:40:34.778Z,995.63
2016-04-15T08:41:34.842Z,995.59
2016-04-15T08:42:34.913Z,995.6
2016-04-15T08:43:34.968Z,995.62
2016-04-15T08:44:35.023Z,995.58
2016-04-15T08:45:35.078Z,995.67
2016-04-15T08:46:35.132Z,995.56
2016-04-15T08:47:35.200Z,995.65
2016-04-15T08:48:35.235Z,995.61
2016-04-15T08:49:35.287Z,995.67
2016-04-15T08:50:35.338Z,995.54
2016-04-15T08:51:35.390Z,995.6
2016-04-15T08:52:35.456Z,995.59
2016-04-15T08:53:35.506Z,995.6
2016-04-15T08:54:35.557Z,995.62
2016-04-15T08:55:35.607Z,995.57
2016-04-15T08:56:35.657Z,995.62
2016-04-15T08:57:35.706Z,995.57
2016-04-15T08:58:35.756Z,995.63
2016-04-15T08:59:35.807Z,995.56
2016-04-15T09:00:35.856Z,995.57
2016-04-15T09:01:35.906Z,995.6
2016-04-15T09:02:35.956Z,995.57
2016-04-15T09:03:36.021Z,995.57
2016-04-15T09:04:36.071Z,995.54
2016-04-15T09:05:36.105Z,995.51
2016-04-15T09:06:36.170Z,995.51
2016-04-15T09:07:36.220Z,995.53
2016-04-15T09:08:36.284Z,995.47
2016-04-15T09:09:36.319Z,995.43
2016-04-15T09:10:36.415Z,995.51
2016-04-15T09:11:36.417Z,995.48
2016-04-15T09:12:36.467Z,995.37
2016-04-15T09:13:36.516Z,995.48
2016-04-15T09:14:36.566Z,995.41
2016-04-15T09:15:36.616Z,995.35
2016-04-15T09:16:36.697Z,995.36
2016-04-15T09:17:36.731Z,995.33
2016-04-15T09:18:36.780Z,995.34
2016-04-15T09:19:36.830Z,995.32
2016-04-15T09:20:36.879Z,995.29
2016-04-15T09:21:36.929Z,995.34
2016-04-15T09:22:36.979Z,995.31
2016-04-15T09:23:37.028Z,995.31
2016-04-15T09:24:37.077Z,995.41
2016-04-15T09:25:37.144Z,995.27
2016-04-15T09:26:37.177Z,995.29
2016-04-15T09:27:37.227Z,995.3
2016-04-15T09:28:37.291Z,995.51
2016-04-15T09:29:37.341Z,995.29
2016-04-15T09:30:37.391Z,995.32
2016-04-15T09:31:37.471Z,995.33
2016-04-15T09:32:37.490Z,995.36
2016-04-15T09:33:37.539Z,995.44
2016-04-15T09:34:37.589Z,995.38
2016-04-15T09:35:37.639Z,995.38
2016-04-15T09:36:37.688Z,995.33
2016-04-15T09:37:37.738Z,995.29
2016-04-15T09:38:37.803Z,995.42
2016-04-15T09:39:37.837Z,995.36
2016-04-15T09:40:37.886Z,995.38
2016-04-15T09:41:37.951Z,995.27
2016-04-15T09:42:38.001Z,995.55
2016-04-15T09:43:38.050Z,995.39
2016-04-15T09:44:38.100Z,995.39
2016-04-15T09:45:38.149Z,995.45
2016-04-15T09:46:38.324Z,995.43
2016-04-15T09:47:38.249Z,995.42
2016-04-15T09:48:38.299Z,995.41
2016-04-15T09:49:38.364Z,995.55
2016-04-15T09:50:38.397Z,995.49
2016-04-15T09:51:38.463Z,995.43
2016-04-15T09:52:38.512Z,995.49
2016-04-15T09:53:38.562Z,995.54
2016-04-15T09:54:38.611Z,995.6
2016-04-15T09:55:38.661Z,995.5
2016-04-15T09:56:38.711Z,995.48
2016-04-15T09:57:38.761Z,995.55
2016-04-15T09:58:38.810Z,995.58
2016-04-15T09:59:38.860Z,995.63
2016-04-15T10:00:38.909Z,995.67
2016-04-15T10:01:39.099Z,995.63
2016-04-15T10:02:39.023Z,995.71
2016-04-15T10:03:39.073Z,995.64
2016-04-15T10:04:39.123Z,995.65
2016-04-15T10:05:39.172Z,995.62
2016-04-15T10:06:39.237Z,995.73
2016-04-15T10:07:39.271Z,995.69
2016-04-15T10:08:39.321Z,995.71
2016-04-15T10:09:39.387Z,995.67
2016-04-15T10:10:39.420Z,995.59
2016-04-15T10:11:39.486Z,995.68
2016-04-15T10:12:39.519Z,995.67
2016-04-15T10:13:39.584Z,995.91
2016-04-15T10:14:39.634Z,995.63
2016-04-15T10:15:39.683Z,995.66
2016-04-15T10:16:39.874Z,995.59
2016-04-15T10:17:39.782Z,995.66
2016-04-15T10:18:39.832Z,995.69
2016-04-15T10:19:39.882Z,995.61
2016-04-15T10:20:39.931Z,995.63
2016-04-15T10:21:39.981Z,995.58
2016-04-15T10:22:40.046Z,995.62
2016-04-15T10:23:40.096Z,995.63
2016-04-15T10:24:40.145Z,995.59
2016-04-15T10:25:40.194Z,995.7
2016-04-15T10:26:40.244Z,995.56
2016-04-15T10:27:40.294Z,995.64
2016-04-15T10:28:40.344Z,995.62
2016-04-15T10:29:40.394Z,995.66
2016-04-15T10:30:40.443Z,995.59
2016-04-15T10:31:40.493Z,995.55
2016-04-15T10:32:40.542Z,995.53
2016-04-15T10:33:40.591Z,995.52
2016-04-15T10:34:40.656Z,995.58
2016-04-15T10:35:40.706Z,995.6
2016-04-15T10:36:40.756Z,995.61
2016-04-15T10:37:40.805Z,995.66
2016-04-15T10:38:40.855Z,995.62
2016-04-15T10:39:40.904Z,995.54
2016-04-15T10:40:40.954Z,995.52
2016-04-15T10:41:41.019Z,995.54
2016-04-15T10:42:41.053Z,995.57
2016-04-15T10:43:41.103Z,995.53
2016-04-15T10:44:41.152Z,995.59
2016-04-15T10:45:41.217Z,995.6
2016-04-15T10:46:41.266Z,995.66
2016-04-15T10:47:41.316Z,995.63
2016-04-15T10:48:41.366Z,995.65
2016-04-15T10:49:41.415Z,995.74
2016-04-15T10:50:41.466Z,995.86
2016-04-15T10:51:41.514Z,995.79
2016-04-15T10:52:41.564Z,995.82
2016-04-15T10:53:41.613Z,995.75
2016-04-15T10:54:41.679Z,995.78
2016-04-15T10:55:41.729Z,995.87
2016-04-15T10:56:41.778Z,995.88
2016-04-15T10:57:41.828Z,995.8
2016-04-15T10:58:41.878Z,995.76
2016-04-15T10:59:41.927Z,995.92
2016-04-15T11:00:41.977Z,995.85
2016-04-15T11:01:42.027Z,995.74
2016-04-15T11:02:42.076Z,995.75
2016-04-15T11:03:42.126Z,995.75
2016-04-15T11:04:42.190Z,995.77
2016-04-15T11:05:42.240Z,995.71
2016-04-15T11:06:42.304Z,995.69
2016-04-15T11:07:42.339Z,995.72
2016-04-15T11:08:42.389Z,995.74
2016-04-15T11:09:42.438Z,995.8
2016-04-15T11:10:42.488Z,995.68
2016-04-15T11:11:42.568Z,995.74
2016-04-15T11:12:42.587Z,995.73
2016-04-15T11:13:42.637Z,995.72
2016-04-15T11:14:42.686Z,995.78
2016-04-15T11:15:42.751Z,995.72
2016-04-15T11:16:42.831Z,995.76
2016-04-15T11:17:42.850Z,995.69
2016-04-15T11:18:42.899Z,995.72
2016-04-15T11:19:42.949Z,995.72
2016-04-15T11:20:42.999Z,995.68
2016-04-15T11:21:43.049Z,995.6
2016-04-15T11:22:43.098Z,995.62
2016-04-15T11:23:43.147Z,995.67
2016-04-15T11:24:43.213Z,995.62
2016-04-15T11:25:43.246Z,995.54
2016-04-15T11:26:43.312Z,995.5
2016-04-15T11:27:43.361Z,995.49
2016-04-15T11:28:43.411Z,995.49
2016-04-15T11:29:43.461Z,995.46
2016-04-15T11:30:43.511Z,995.54
2016-04-15T11:31:43.560Z,995.43
2016-04-15T11:32:43.610Z,995.44
2016-04-15T11:33:43.659Z,995.39
2016-04-15T11:34:43.709Z,995.51
2016-04-15T11:35:43.758Z,995.47
2016-04-15T11:36:44.073Z,995.48
2016-04-15T11:37:43.873Z,995.4
2016-04-15T11:38:43.922Z,995.39
2016-04-15T11:39:43.973Z,995.4
2016-04-15T11:40:44.021Z,995.42
2016-04-15T11:41:44.728Z,995.43
2016-04-15T11:42:44.120Z,995.44
2016-04-15T11:43:44.170Z,995.29
2016-04-15T11:44:44.220Z,995.32
2016-04-15T11:45:44.269Z,995.28
2016-04-15T11:46:44.334Z,995.28
2016-04-15T11:47:44.384Z,995.29
2016-04-15T11:48:44.433Z,995.28
2016-04-15T11:49:44.483Z,995.25
2016-04-15T11:50:44.533Z,995.27
2016-04-15T11:51:44.582Z,995.18
2016-04-15T11:52:44.632Z,995.24
2016-04-15T11:53:44.681Z,995.21
2016-04-15T11:54:44.730Z,995.16
2016-04-15T11:55:44.796Z,995.15
2016-04-15T11:56:44.846Z,995.23
2016-04-15T11:57:44.896Z,995.32
2016-04-15T11:58:44.945Z,995.22
2016-04-15T11:59:44.994Z,995.18
2016-04-15T12:00:45.044Z,995.08
2016-04-15T12:01:45.093Z,995.16
2016-04-15T12:02:45.159Z,995.14
2016-04-15T12:03:45.192Z,995.16
2016-04-15T12:04:45.242Z,995.07
2016-04-15T12:05:45.292Z,995.12
2016-04-15T12:06:45.357Z,995.13
2016-04-15T12:07:45.406Z,995.13
2016-04-15T12:08:45.457Z,995.16
2016-04-15T12:09:45.508Z,995.12
2016-04-15T12:10:45.558Z,995.11
2016-04-15T12:11:45.623Z,995.05
2016-04-15T12:12:45.656Z,995.15
2016-04-15T12:13:45.706Z,995.14
2016-04-15T12:14:45.755Z,995.12
2016-04-15T12:15:45.805Z,995.05
2016-04-15T12:16:45.869Z,995.15
2016-04-15T12:17:45.905Z,995.05
2016-04-15T12:18:45.969Z,995.01
2016-04-15T12:19:46.019Z,995.11
2016-04-15T12:20:46.069Z,995.11
2016-04-15T12:21:46.118Z,995.08
2016-04-15T12:22:46.168Z,995.01
2016-04-15T12:23:46.217Z,995.2
2016-04-15T12:24:46.266Z,995.24
2016-04-15T12:25:46.326Z,994.99
2016-04-15T12:26:46.375Z,995.12
2016-04-15T12:27:46.425Z,995.18
2016-04-15T12:28:46.475Z,995.2
2016-04-15T12:29:46.525Z,995.14